KSSF/SSF METAR and TAF weather

Enter ICAO airport designator
Station Type Date Time Source
KSSF METAR 2019/04/25 11:53 UTC NOAA

KSSF 251153Z 30006KT 10SM CLR 15/12 A2986 RMK AO2 SLP107 70034 T01500117 10150 20128 53009


Station Type Date Time Source
KSSF Decoded METAR 2019/04/25 11:53 UTC NOAA

SAN ANTONIO STINSON MUNI, TX, United States (KSSF) 29-20N 098-28W 176M
Apr 25, 2019 - 07:53 AM EDT / 2019.04.25 1153 UTC
Wind: from the WNW (300 degrees) at 7 MPH (6 KT):0
Visibility: 10 mile(s):0
Sky conditions: clear
Temperature: 59.0 F (15.0 C)
Dew Point: 53.1 F (11.7 C)
Relative Humidity: 80%
Pressure (altimeter): 29.86 in. Hg (1011 hPa)
Pressure tendency: 0.03 inches (0.9 hPa) higher than three hours ago
ob: KSSF 251153Z 30006KT 10SM CLR 15/12 A2986 RMK AO2 SLP107 70034 T01500117 10150 20128 53009
cycle: 12

Station Type Date Time Source
KSSF TAF 2019/04/25 12:39 UTC NOAA

TAF KSSF 251120Z 2512/2612 31007KT P6SM SKC
FM260100 01002KT P6SM SKC

Example: see airport list